Terminal Aerodrome Forecast
Issued by NWS

Home | Current Version | Previous Version | Text Only | Print | Product List | Glossary Off
Versions: 1 2 3 4 5 6 7 8 9 10 11 12 13 14 15 16 17 18 19

000
FTUS43 KBIS 141421 AAA
TAFDIK
TAF AMD
KDIK 141421Z 1414/1512 02012KT P6SM OVC005
     FM141800 35015G23KT P6SM SCT010 BKN025
     FM142000 32016G24KT P6SM SCT020 BKN090
     FM150000 30008KT P6SM SKC
     FM150900 24011KT P6SM FEW030 FEW200 WS020/29030KT=

USA.gov is the U.S. government's official web portal to all federal, state and local government web resources and services.